Time;durP1;ratioP1;P1;durP2;ratioP2;P2;SDS_P1;SDS_P2;PMS_P1;PMS_P2;Temp;Humidity;BMP_temperature;BMP_pressure;BME280_temperature;BME280_humidity;BME280_pressure;Samples;Min_cycle;Max_cycle;Signal;HPM_P1;HPM_P2
2022/10/09 00:01:09;;;;;;;5.42;2.62;;;;;;;12.97;74.43;99217.94;1633476;87;25432;-63
2022/10/09 00:03:38;;;;;;;4.30;2.67;;;;;;;12.95;74.40;99222.14;1629686;86;27490;-63
2022/10/09 00:06:08;;;;;;;3.70;2.10;;;;;;;12.92;74.55;99220.25;1633489;87;25620;-62
2022/10/09 00:08:40;;;;;;;3.87;1.90;;;;;;;12.90;74.56;99225.83;1633965;87;25654;-61
2022/10/09 00:11:11;;;;;;;7.53;2.67;;;;;;;12.88;74.66;99234.40;1633306;87;26365;-61
2022/10/09 00:13:38;;;;;;;4.20;2.37;;;;;;;12.84;74.86;99230.63;1633209;87;25593;-63
2022/10/09 00:16:08;;;;;;;3.20;1.95;;;;;;;12.79;74.81;99235.73;1633197;87;27449;-60
2022/10/09 00:18:35;;;;;;;3.58;1.90;;;;;;;12.83;74.70;99235.07;1633481;87;33577;-62
2022/10/09 00:21:03;;;;;;;4.53;1.90;;;;;;;12.83;74.73;99231.77;1633128;87;25625;-62
2022/10/09 00:23:31;;;;;;;5.40;2.20;;;;;;;12.80;75.14;99238.72;1633584;87;25710;-62
2022/10/09 00:26:00;;;;;;;3.90;2.45;;;;;;;12.80;74.74;99245.59;1633462;87;25677;-61
2022/10/09 00:28:30;;;;;;;6.15;2.30;;;;;;;12.83;74.83;99251.02;1633485;87;28146;-63
2022/10/09 00:30:56;;;;;;;3.50;2.00;;;;;;;12.80;75.37;99247.52;1633314;87;25532;-63
2022/10/09 00:33:23;;;;;;;3.67;2.40;;;;;;;12.78;75.09;99248.42;1633243;87;25678;-60
2022/10/09 00:35:50;;;;;;;5.60;2.62;;;;;;;12.78;75.13;99263.55;1633017;87;25763;-63
2022/10/09 00:38:16;;;;;;;5.25;2.58;;;;;;;12.80;74.99;99264.02;1633119;87;25420;-63
2022/10/09 00:40:43;;;;;;;4.20;2.05;;;;;;;12.78;75.16;99261.59;1633474;87;27457;-61
2022/10/09 00:43:19;;;;;;;5.75;2.35;;;;;;;12.79;75.12;99261.03;1633155;87;26018;-61
2022/10/09 00:45:53;;;;;;;6.05;2.70;;;;;;;12.75;75.37;99271.05;1669156;85;25633;-60
2022/10/09 00:48:21;;;;;;;4.25;2.35;;;;;;;12.66;75.24;99272.34;1671595;85;26670;-59
2022/10/09 00:50:52;;;;;;;7.95;2.17;;;;;;;12.64;75.16;99272.65;1671674;85;25608;-62
2022/10/09 00:53:22;;;;;;;5.83;1.90;;;;;;;12.67;75.24;99275.36;1671813;85;28232;-61
2022/10/09 00:55:49;;;;;;;4.22;2.17;;;;;;;12.65;75.02;99277.59;1671628;85;25668;-62
2022/10/09 00:58:15;;;;;;;4.42;2.10;;;;;;;12.67;75.09;99277.52;1671367;85;25621;-61
2022/10/09 01:00:41;;;;;;;4.37;2.00;;;;;;;12.70;75.11;99285.73;1671645;85;25853;-62
2022/10/09 01:03:08;;;;;;;6.62;2.55;;;;;;;12.70;75.11;99281.61;1671684;85;25600;-58
2022/10/09 01:05:55;;;;;;;3.42;2.20;;;;;;;12.64;75.35;99278.15;1671672;85;28000;-61
2022/10/09 01:08:32;;;;;;;4.95;2.52;;;;;;;12.63;75.39;99295.78;1671611;85;25925;-61
2022/10/09 01:11:09;;;;;;;5.37;2.47;;;;;;;12.61;75.50;99288.98;1671128;85;25643;-62
2022/10/09 01:13:43;;;;;;;6.17;2.30;;;;;;;12.58;75.40;99286.27;1671923;85;25692;-60
2022/10/09 01:16:26;;;;;;;5.30;2.40;;;;;;;12.51;75.59;99283.15;1671874;85;25392;-61
2022/10/09 01:19:07;;;;;;;5.50;2.20;;;;;;;12.49;75.57;99288.95;1671698;85;28264;-62
2022/10/09 01:21:58;;;;;;;6.00;2.92;;;;;;;12.45;75.93;99286.59;1671004;85;32986;-62
2022/10/09 01:24:41;;;;;;;5.00;2.72;;;;;;;12.35;75.98;99293.13;1671852;85;25507;-62
2022/10/09 01:27:25;;;;;;;5.65;3.15;;;;;;;12.28;76.59;99300.98;1671316;85;25749;-59
2022/10/09 01:29:55;;;;;;;6.97;2.87;;;;;;;12.23;76.57;99304.66;1671199;85;25472;-60
2022/10/09 01:32:32;;;;;;;7.80;2.50;;;;;;;12.19;76.35;99313.83;1671609;85;27473;-58
2022/10/09 01:35:00;;;;;;;7.62;3.27;;;;;;;12.13;76.91;99315.87;1671676;85;25705;-60
2022/10/09 01:37:29;;;;;;;7.28;3.20;;;;;;;12.10;76.85;99320.62;1671415;85;25709;-58
2022/10/09 01:39:57;;;;;;;8.48;3.10;;;;;;;12.10;76.74;99323.36;1671676;85;25832;-58
2022/10/09 01:42:26;;;;;;;8.03;3.22;;;;;;;12.09;76.64;99321.75;1671856;85;25701;-59
2022/10/09 01:44:53;;;;;;;7.05;2.90;;;;;;;12.01;77.78;99326.79;1671521;85;27582;-60
2022/10/09 01:47:21;;;;;;;6.92;3.22;;;;;;;11.91;77.46;99318.22;1671351;85;25678;-59
2022/10/09 01:50:22;;;;;;;5.55;2.80;;;;;;;11.88;77.25;99328.44;1671836;85;25644;-58
2022/10/09 01:52:56;;;;;;;5.20;3.02;;;;;;;11.85;77.46;99335.09;1672018;85;25803;-61
2022/10/09 01:55:31;;;;;;;6.78;2.77;;;;;;;11.79;77.41;99335.22;1689697;84;25634;-59
2022/10/09 01:58:32;;;;;;;5.62;2.62;;;;;;;11.73;77.99;99339.73;1703696;84;27448;-58
2022/10/09 02:01:12;;;;;;;6.80;2.47;;;;;;;11.67;78.04;99348.08;1698254;84;25588;-61
2022/10/09 02:03:42;;;;;;;3.33;2.40;;;;;;;11.62;78.16;99345.97;1698328;84;25624;-59
2022/10/09 02:06:12;;;;;;;4.58;2.30;;;;;;;11.59;77.41;99347.40;1698465;84;25782;-59
2022/10/09 02:08:40;;;;;;;6.80;2.57;;;;;;;11.59;77.17;99350.14;1698888;84;25670;-62
2022/10/09 02:11:10;;;;;;;6.22;2.80;;;;;;;11.53;77.09;99350.81;1698464;84;28179;-59
2022/10/09 02:13:37;;;;;;;5.47;2.62;;;;;;;11.47;77.24;99356.68;1698066;84;25404;-60
2022/10/09 02:16:30;;;;;;;4.92;2.30;;;;;;;11.39;77.62;99358.19;1698307;84;25669;-60
2022/10/09 02:19:04;;;;;;;3.33;2.10;;;;;;;11.30;77.16;99355.33;1698048;84;25780;-62
2022/10/09 02:21:47;;;;;;;6.65;2.80;;;;;;;11.21;77.28;99358.50;1698749;84;25406;-60
2022/10/09 02:24:19;;;;;;;4.60;2.12;;;;;;;11.11;77.41;99367.73;1698502;84;28145;-60
2022/10/09 02:26:46;;;;;;;6.55;2.75;;;;;;;11.01;77.21;99368.16;1698475;84;25396;-62
2022/10/09 02:29:14;;;;;;;5.08;3.08;;;;;;;10.91;78.08;99373.23;1698317;84;25647;-62
2022/10/09 02:31:42;;;;;;;6.47;3.12;;;;;;;10.84;77.60;99370.61;1698085;84;25711;-61
2022/10/09 02:34:12;;;;;;;7.08;2.75;;;;;;;10.81;77.83;99372.03;1698377;84;25482;-62
2022/10/09 02:36:39;;;;;;;4.47;2.22;;;;;;;10.79;77.62;99370.95;1698563;84;26882;-62
2022/10/09 02:39:07;;;;;;;8.20;2.52;;;;;;;10.80;78.12;99373.16;1698307;84;25791;-62
2022/10/09 02:41:34;;;;;;;4.55;2.10;;;;;;;10.73;77.93;99370.77;1698532;84;25624;-62
2022/10/09 02:44:01;;;;;;;5.17;2.33;;;;;;;10.73;77.84;99371.32;1697990;84;25657;-62
2022/10/09 02:46:28;;;;;;;3.92;2.40;;;;;;;10.74;77.79;99381.20;1702497;84;25426;-61
2022/10/09 02:48:54;;;;;;;10.93;3.37;;;;;;;10.72;77.63;99385.60;1669598;85;27458;-62
2022/10/09 02:51:20;;;;;;;6.42;2.77;;;;;;;10.69;77.80;99386.73;1692997;84;27162;-63
2022/10/09 02:53:47;;;;;;;4.03;2.70;;;;;;;10.63;77.87;99391.48;1693301;84;25596;-62
2022/10/09 02:56:13;;;;;;;5.17;2.50;;;;;;;10.58;77.89;99388.27;1693366;84;25794;-63
2022/10/09 02:58:40;;;;;;;5.37;2.55;;;;;;;10.52;78.24;99391.64;1693363;84;25652;-63
2022/10/09 03:01:06;;;;;;;7.08;2.47;;;;;;;10.46;78.80;99387.88;1693360;84;27454;-62
2022/10/09 03:03:32;;;;;;;5.97;2.50;;;;;;;10.40;78.54;99389.28;1693029;84;25483;-63
2022/10/09 03:06:08;;;;;;;5.97;2.45;;;;;;;10.31;78.72;99392.98;1693051;84;25664;-62
2022/10/09 03:08:36;;;;;;;5.70;2.45;;;;;;;10.27;78.92;99390.83;1693352;84;25760;-63
2022/10/09 03:11:03;;;;;;;4.28;2.40;;;;;;;10.16;79.00;99398.35;1693310;84;25652;-63
2022/10/09 03:13:30;;;;;;;7.87;2.52;;;;;;;10.11;79.11;99401.17;1693638;84;27457;-63
2022/10/09 03:16:05;;;;;;;6.10;2.98;;;;;;;10.08;79.01;99396.28;1692976;84;25675;-63
2022/10/09 03:18:31;;;;;;;5.25;2.27;;;;;;;10.08;79.14;99400.93;1693280;84;25672;-61
2022/10/09 03:20:57;;;;;;;7.87;2.50;;;;;;;10.06;78.98;99399.85;1693244;84;25700;-62
2022/10/09 03:23:24;;;;;;;9.20;2.83;;;;;;;10.04;78.96;99406.16;1693204;84;25606;-63
2022/10/09 03:26:03;;;;;;;3.67;2.22;;;;;;;10.00;79.00;99404.58;1692976;84;27457;-62
2022/10/09 03:28:30;;;;;;;4.20;2.52;;;;;;;9.97;78.97;99409.81;1693457;84;26654;-62
2022/10/09 03:30:57;;;;;;;7.65;3.20;;;;;;;9.89;79.02;99415.38;1693079;84;25581;-63
2022/10/09 03:33:23;;;;;;;5.95;2.90;;;;;;;9.83;79.21;99415.16;1693127;84;25891;-62
2022/10/09 03:35:49;;;;;;;5.50;3.52;;;;;;;9.76;79.23;99423.16;1693175;84;25676;-60
2022/10/09 03:38:16;;;;;;;6.33;3.30;;;;;;;9.69;79.28;99419.95;1693318;84;28189;-62
2022/10/09 03:40:42;;;;;;;7.62;3.25;;;;;;;9.62;79.34;99421.65;1693356;84;25467;-62
2022/10/09 03:43:09;;;;;;;5.15;2.87;;;;;;;9.52;79.61;99415.73;1693430;84;25527;-60
2022/10/09 03:45:40;;;;;;;5.25;2.80;;;;;;;9.47;79.72;99423.19;1702209;83;25916;-59
2022/10/09 03:48:07;;;;;;;5.10;3.00;;;;;;;9.40;79.89;99420.23;1699796;83;25685;-58
2022/10/09 03:50:34;;;;;;;7.50;2.95;;;;;;;9.39;80.04;99430.09;1673039;84;27471;-59
2022/10/09 03:53:00;;;;;;;5.47;3.10;;;;;;;9.31;80.18;99426.05;1693104;84;25665;-59
2022/10/09 03:55:26;;;;;;;5.85;2.95;;;;;;;9.28;80.37;99432.09;1693018;84;25728;-61
2022/10/09 03:57:52;;;;;;;6.42;3.02;;;;;;;9.27;80.32;99431.83;1693476;84;25775;-62
2022/10/09 04:00:18;;;;;;;8.98;3.55;;;;;;;9.19;80.19;99435.99;1693558;84;25582;-63
2022/10/09 04:02:45;;;;;;;8.28;3.58;;;;;;;9.16;80.34;99439.30;1693378;84;27645;-63
2022/10/09 04:05:11;;;;;;;8.23;3.55;;;;;;;9.09;80.41;99436.05;1693317;84;25545;-63
2022/10/09 04:07:37;;;;;;;5.55;3.83;;;;;;;9.06;80.54;99436.07;1693423;84;25700;-63
2022/10/09 04:10:05;;;;;;;8.58;4.05;;;;;;;9.06;80.64;99441.54;1693131;84;25798;-61
2022/10/09 04:12:31;;;;;;;8.78;4.37;;;;;;;8.99;80.60;99439.14;1693332;84;25472;-61
2022/10/09 04:14:57;;;;;;;9.60;4.30;;;;;;;8.96;80.72;99444.34;1693208;82;27634;-61
2022/10/09 04:17:23;;;;;;;8.65;4.15;;;;;;;8.92;80.75;99441.36;1693296;84;25928;-59
2022/10/09 04:19:49;;;;;;;8.58;4.28;;;;;;;8.90;80.95;99452.57;1693352;84;25541;-60
2022/10/09 04:22:15;;;;;;;10.93;4.22;;;;;;;8.89;81.01;99450.95;1693329;84;25757;-62
2022/10/09 04:24:41;;;;;;;10.18;3.90;;;;;;;8.89;81.03;99450.12;1693425;84;25589;-62
2022/10/09 04:27:07;;;;;;;8.40;3.70;;;;;;;8.90;81.25;99447.67;1693007;84;27462;-62
2022/10/09 04:29:33;;;;;;;9.23;4.28;;;;;;;8.88;81.01;99454.78;1693530;84;25652;-59
2022/10/09 04:32:00;;;;;;;11.75;4.33;;;;;;;8.82;81.02;99459.19;1693380;84;25463;-60
2022/10/09 04:34:26;;;;;;;6.80;3.83;;;;;;;8.78;81.38;99458.95;1692920;84;25690;-60
2022/10/09 04:36:52;;;;;;;9.53;4.33;;;;;;;8.72;81.35;99457.34;1693429;84;25613;-62
2022/10/09 04:39:18;;;;;;;7.55;3.80;;;;;;;8.66;81.44;99462.83;1693016;84;26619;-60
2022/10/09 04:41:45;;;;;;;7.62;3.60;;;;;;;8.64;81.58;99463.64;1693031;84;27124;-61
2022/10/09 04:44:11;;;;;;;6.83;3.50;;;;;;;8.61;81.47;99469.67;1693374;84;25617;-62
2022/10/09 04:46:37;;;;;;;7.87;3.92;;;;;;;8.60;81.52;99465.31;1692109;84;25743;-60
2022/10/09 04:49:03;;;;;;;6.70;3.72;;;;;;;8.58;81.49;99474.33;1688426;85;25415;-58
2022/10/09 04:51:29;;;;;;;6.55;3.42;;;;;;;8.59;81.48;99477.88;1687779;85;27434;-57
2022/10/09 04:53:56;;;;;;;5.12;3.22;;;;;;;8.57;81.58;99474.61;1688258;85;25649;-59
2022/10/09 04:56:23;;;;;;;7.10;3.62;;;;;;;8.57;81.63;99482.80;1688209;85;25594;-57
2022/10/09 04:58:50;;;;;;;6.62;3.60;;;;;;;8.54;81.55;99485.55;1687990;84;26473;-59
2022/10/09 05:01:23;;;;;;;8.03;4.45;;;;;;;8.50;81.73;99493.48;1688194;85;25576;-62
2022/10/09 05:03:51;;;;;;;7.03;3.90;;;;;;;8.42;81.64;99494.05;1688090;85;27446;-58
2022/10/09 05:06:18;;;;;;;6.08;3.92;;;;;;;8.34;81.95;99498.16;1687792;85;25483;-59
2022/10/09 05:08:45;;;;;;;8.28;3.92;;;;;;;8.34;82.01;99494.60;1688483;85;25666;-57
2022/10/09 05:11:18;;;;;;;7.70;3.92;;;;;;;8.28;81.95;99493.27;1688186;84;25686;-57
2022/10/09 05:13:49;;;;;;;8.85;4.80;;;;;;;8.26;82.11;99501.48;1688238;85;25686;-62
2022/10/09 05:16:20;;;;;;;7.92;3.45;;;;;;;8.30;82.22;99503.92;1687994;85;29776;-61
2022/10/09 05:18:50;;;;;;;5.90;3.33;;;;;;;8.32;82.22;99501.70;1688694;84;25619;-62
2022/10/09 05:21:17;;;;;;;5.08;3.20;;;;;;;8.35;81.97;99498.98;1688379;84;32922;-61
2022/10/09 05:23:43;;;;;;;15.18;4.78;;;;;;;8.37;82.11;99509.90;1687996;85;27838;-62
2022/10/09 05:26:19;;;;;;;8.65;4.42;;;;;;;8.46;82.16;99507.41;1687952;85;25634;-61
2022/10/09 05:28:46;;;;;;;6.62;4.00;;;;;;;8.50;82.01;99509.04;1688144;85;26907;-61
2022/10/09 05:31:27;;;;;;;8.25;4.67;;;;;;;8.52;82.01;99515.85;1688065;85;26079;-61
2022/10/09 05:33:57;;;;;;;8.33;4.08;;;;;;;8.46;81.66;99517.53;1688219;85;25439;-62
2022/10/09 05:36:23;;;;;;;8.73;4.53;;;;;;;8.41;82.34;99521.89;1688101;85;26589;-61
2022/10/09 05:38:49;;;;;;;7.42;4.60;;;;;;;8.42;82.58;99522.72;1688673;84;25435;-61
2022/10/09 05:41:18;;;;;;;7.05;4.47;;;;;;;8.44;82.93;99534.20;1688436;85;27341;-58
2022/10/09 05:43:47;;;;;;;9.95;4.60;;;;;;;8.49;83.10;99534.16;1687924;85;26046;-57
2022/10/09 05:46:23;;;;;;;6.85;4.72;;;;;;;8.55;83.37;99541.81;1688009;83;25468;-58
2022/10/09 05:48:56;;;;;;;7.87;5.00;;;;;;;8.64;83.82;99544.25;1688187;84;25829;-58
2022/10/09 05:51:30;;;;;;;9.60;5.20;;;;;;;8.74;83.74;99545.31;1688310;85;25431;-57
2022/10/09 05:53:57;;;;;;;10.23;5.25;;;;;;;8.85;83.90;99548.83;1688184;84;27451;-57
2022/10/09 05:56:30;;;;;;;8.05;4.90;;;;;;;8.95;83.97;99548.77;1688050;85;25616;-57
2022/10/09 05:59:05;;;;;;;11.03;6.10;;;;;;;9.05;83.92;99552.02;1688186;84;25499;-58
2022/10/09 06:01:36;;;;;;;10.98;6.95;;;;;;;9.12;83.67;99555.25;1688164;84;25922;-58
2022/10/09 06:04:03;;;;;;;;;;;;;;;9.17;84.08;99555.77;1689581;85;25587;-58
2022/10/09 06:06:34;;;;;;;9.70;6.03;;;;;;;9.24;84.22;99560.38;1688046;84;27516;-59
2022/10/09 06:09:02;;;;;;;12.43;6.03;;;;;;;9.31;84.16;99560.08;1688399;85;25612;-58
2022/10/09 06:11:35;;;;;;;9.93;6.00;;;;;;;9.40;83.97;99565.22;1687866;85;25430;-57
2022/10/09 06:14:04;;;;;;;25.65;12.95;;;;;;;9.48;83.90;99569.27;1688119;84;25867;-57
2022/10/09 06:16:34;;;;;;;13.88;7.92;;;;;;;9.58;83.68;99564.27;1688311;84;25448;-57
2022/10/09 06:19:01;;;;;;;6.35;4.17;;;;;;;9.71;83.46;99568.83;1688082;85;27867;-57
2022/10/09 06:21:28;;;;;;;6.80;3.67;;;;;;;9.82;83.17;99569.58;1687802;85;25675;-57
2022/10/09 06:23:58;;;;;;;7.03;3.47;;;;;;;9.96;83.18;99577.95;1688346;85;25708;-57
2022/10/09 06:26:30;;;;;;;10.60;4.30;;;;;;;10.06;82.74;99581.14;1687760;85;25746;-59
2022/10/09 06:28:59;;;;;;;8.20;4.67;;;;;;;10.16;82.35;99581.04;1687948;85;25601;-58
2022/10/09 06:31:29;;;;;;;7.47;4.60;;;;;;;10.24;82.38;99586.45;1687915;84;27643;-58
2022/10/09 06:33:59;;;;;;;6.45;3.90;;;;;;;10.28;81.81;99584.79;1688179;84;25663;-58
2022/10/09 06:36:28;;;;;;;7.47;4.05;;;;;;;10.28;81.89;99588.33;1687913;85;25683;-62
2022/10/09 06:38:55;;;;;;;5.78;3.70;;;;;;;10.37;81.85;99585.80;1688058;85;25760;-61
2022/10/09 06:41:25;;;;;;;6.10;3.50;;;;;;;10.48;81.53;99592.56;1652591;85;25691;-61
2022/10/09 06:44:04;;;;;;;9.13;3.67;;;;;;;10.61;81.03;99596.53;1688390;85;27313;-62
2022/10/09 06:46:37;;;;;;;10.70;3.92;;;;;;;10.62;80.94;99605.03;1693717;84;25870;-61
2022/10/09 06:49:06;;;;;;;7.65;3.77;;;;;;;10.71;81.01;99601.89;1701201;84;25478;-62
2022/10/09 06:51:34;;;;;;;5.70;3.83;;;;;;;10.80;80.56;99610.31;1693320;84;25479;-61
2022/10/09 06:54:09;;;;;;;5.65;3.20;;;;;;;10.83;79.75;99615.76;1693364;84;25646;-62
2022/10/09 06:56:33;;;;;;;9.75;3.95;;;;;;;10.82;79.37;99613.56;1691288;84;25857;-61
2022/10/09 06:59:02;;;;;;;7.80;3.60;;;;;;;10.81;79.08;99619.34;1693008;84;25429;-61
2022/10/09 07:01:34;;;;;;;8.20;3.90;;;;;;;10.87;79.50;99617.63;1693658;84;25404;-62
2022/10/09 07:04:12;;;;;;;10.88;4.45;;;;;;;10.93;78.66;99619.75;1691722;84;25484;-62
2022/10/09 07:06:43;;;;;;;7.08;4.15;;;;;;;10.95;79.30;99627.69;1693302;84;25668;-62
2022/10/09 07:09:12;;;;;;;5.67;3.22;;;;;;;11.02;78.15;99631.71;1693132;84;27632;-62
2022/10/09 07:11:43;;;;;;;7.10;3.60;;;;;;;10.99;77.00;99633.67;1693369;84;25498;-62
2022/10/09 07:14:11;;;;;;;;;;;;;;;11.04;77.50;99635.53;1710094;83;25710;-61
2022/10/09 07:16:41;;;;;;;5.92;3.52;;;;;;;11.07;77.64;99633.58;1717671;83;25616;-62
2022/10/09 07:19:10;;;;;;;6.95;3.10;;;;;;;11.31;78.07;99638.78;1732953;82;25662;-62
2022/10/09 07:21:40;;;;;;;7.60;3.33;;;;;;;11.49;77.20;99639.91;1732329;82;27536;-60
2022/10/09 07:24:08;;;;;;;5.30;2.90;;;;;;;11.67;77.31;99644.60;1732879;82;25495;-62
2022/10/09 07:26:38;;;;;;;8.90;3.60;;;;;;;11.94;75.56;99653.83;1732759;82;25618;-62
2022/10/09 07:29:07;;;;;;;5.62;2.77;;;;;;;12.04;75.76;99651.71;1717768;83;25675;-62
2022/10/09 07:31:34;;;;;;;6.50;3.42;;;;;;;12.13;73.57;99656.57;1732822;82;25460;-62
2022/10/09 07:34:01;;;;;;;5.58;3.20;;;;;;;12.23;73.97;99655.60;1732372;82;27377;-62
2022/10/09 07:36:28;;;;;;;9.43;4.17;;;;;;;12.24;74.33;99654.48;1732552;82;25736;-62
2022/10/09 07:38:57;;;;;;;6.30;3.22;;;;;;;12.36;74.46;99652.08;1732707;82;25676;-62
2022/10/09 07:41:27;;;;;;;6.17;3.70;;;;;;;12.37;73.88;99652.33;1732771;82;25740;-62
2022/10/09 07:43:54;;;;;;;6.37;2.80;;;;;;;12.42;73.69;99654.17;1732681;82;25631;-58
2022/10/09 07:46:23;;;;;;;6.15;2.80;;;;;;;12.50;72.87;99649.37;1731741;82;27554;-59
2022/10/09 07:48:50;;;;;;;4.65;2.67;;;;;;;12.97;73.40;99647.11;1727818;82;25395;-58
2022/10/09 07:51:28;;;;;;;4.80;2.77;;;;;;;13.43;71.91;99643.15;1727525;83;25447;-58
2022/10/09 07:53:56;;;;;;;4.92;2.40;;;;;;;13.65;68.98;99647.12;1727815;83;25745;-59
2022/10/09 07:56:34;;;;;;;6.95;3.25;;;;;;;13.91;69.23;99644.56;1728691;82;25613;-63
2022/10/09 07:59:09;;;;;;;6.15;2.83;;;;;;;13.99;69.09;99641.63;1732767;82;27432;-59
2022/10/09 08:01:36;;;;;;;6.15;2.52;;;;;;;14.07;69.37;99648.34;1731833;82;25614;-61
2022/10/09 08:04:03;;;;;;;4.72;2.58;;;;;;;14.16;68.68;99653.91;1732780;82;25460;-63
2022/10/09 08:06:31;;;;;;;7.33;2.80;;;;;;;14.43;68.16;99655.70;1732674;82;25685;-60
2022/10/09 08:09:00;;;;;;;5.97;2.70;;;;;;;14.65;65.60;99650.50;1732463;82;25480;-63
2022/10/09 08:11:34;;;;;;;5.37;2.60;;;;;;;14.81;65.99;99655.05;1732712;82;27431;-62
2022/10/09 08:14:07;;;;;;;4.00;2.65;;;;;;;14.76;64.67;99642.73;1732631;82;25605;-62
2022/10/09 08:16:41;;;;;;;6.08;2.40;;;;;;;14.70;63.84;99664.69;1732738;82;25598;-62
2022/10/09 08:19:09;;;;;;;6.28;2.80;;;;;;;14.62;63.41;99664.92;1732432;82;25779;-63
2022/10/09 08:21:54;;;;;;;6.70;2.58;;;;;;;14.72;65.07;99657.74;1732745;82;25428;-63
2022/10/09 08:24:21;;;;;;;4.87;2.05;;;;;;;15.33;65.66;99661.88;1732410;82;27478;-63
2022/10/09 08:26:47;;;;;;;5.00;2.10;;;;;;;16.04;62.54;99660.61;1732321;82;25486;-62
2022/10/09 08:29:15;;;;;;;3.83;2.27;;;;;;;16.50;60.39;99665.19;1732331;82;25413;-60
2022/10/09 08:31:41;;;;;;;7.15;2.00;;;;;;;16.72;61.42;99666.67;1732476;82;25975;-58
2022/10/09 08:34:10;;;;;;;5.58;2.47;;;;;;;16.75;60.64;99672.34;1732709;82;25606;-58
2022/10/09 08:36:37;;;;;;;5.12;2.35;;;;;;;16.71;61.01;99668.61;1732508;82;26930;-60
2022/10/09 08:39:03;;;;;;;6.42;2.90;;;;;;;17.08;58.62;99666.80;1732266;82;25728;-59
2022/10/09 08:41:46;;;;;;;5.45;2.22;;;;;;;17.35;58.87;99670.23;1732917;82;25672;-59
2022/10/09 08:44:20;;;;;;;4.75;2.20;;;;;;;17.27;56.80;99671.11;1717372;83;25804;-58
2022/10/09 08:47:13;;;;;;;5.53;2.15;;;;;;;17.65;57.72;99668.02;1731467;82;25609;-60
2022/10/09 08:49:54;;;;;;;3.52;2.22;;;;;;;18.00;57.36;99671.09;1727726;83;29528;-59
2022/10/09 08:52:44;;;;;;;6.20;2.58;;;;;;;18.71;57.70;99665.67;1727890;83;25710;-61
2022/10/09 08:55:30;;;;;;;7.12;2.08;;;;;;;19.51;54.44;99666.06;1717302;83;25682;-58
2022/10/09 08:58:04;;;;;;;4.90;1.90;;;;;;;20.06;54.07;99669.31;1732763;82;25773;-58
2022/10/09 09:00:38;;;;;;;5.40;2.08;;;;;;;20.29;52.02;99670.14;1717887;83;25469;-58
2022/10/09 09:03:43;;;;;;;4.85;1.80;;;;;;;20.48;51.96;99665.87;1732704;82;27476;-59
2022/10/09 09:06:29;;;;;;;5.50;1.57;;;;;;;20.52;50.81;99670.16;1716158;83;25720;-59
2022/10/09 09:09:24;;;;;;;3.17;1.45;;;;;;;20.15;51.48;99668.37;1732915;82;25463;-58
2022/10/09 09:12:13;;;;;;;6.20;2.40;;;;;;;19.94;48.05;99666.54;1717446;83;25870;-58
2022/10/09 09:15:11;;;;;;;6.45;1.90;;;;;;;19.25;50.11;99664.46;1712841;83;25617;-58
2022/10/09 09:17:52;;;;;;;5.58;1.92;;;;;;;19.23;48.02;99668.19;1712155;82;27488;-57
2022/10/09 09:20:53;;;;;;;3.83;1.85;;;;;;;19.00;50.23;99656.12;1712182;83;25817;-62
2022/10/09 09:23:30;;;;;;;4.95;2.12;;;;;;;19.53;51.97;99660.40;1712713;83;25535;-61
2022/10/09 09:25:58;;;;;;;3.95;1.70;;;;;;;20.42;50.87;99655.59;1712487;83;25706;-61
2022/10/09 09:28:32;;;;;;;4.55;1.65;;;;;;;20.96;49.11;99655.39;1712227;83;25679;-62
2022/10/09 09:31:22;;;;;;;4.75;1.75;;;;;;;20.99;45.84;99651.06;1712414;83;27276;-61
2022/10/09 09:34:02;;;;;;;3.90;1.52;;;;;;;20.96;48.28;99657.36;1712836;83;25514;-62
2022/10/09 09:36:36;;;;;;;2.80;1.42;;;;;;;21.23;46.46;99660.38;1713048;83;25498;-62
2022/10/09 09:39:03;;;;;;;3.72;1.25;;;;;;;21.63;46.34;99661.29;1712232;83;25683;-61
2022/10/09 09:41:30;;;;;;;3.55;1.45;;;;;;;21.76;46.18;99659.22;1712820;83;25630;-62
2022/10/09 09:43:56;;;;;;;4.83;1.60;;;;;;;21.89;46.25;99655.11;1712187;83;28426;-62
2022/10/09 09:46:28;;;;;;;4.37;1.77;;;;;;;21.69;45.05;99660.66;1712256;83;25478;-59
2022/10/09 09:48:54;;;;;;;4.78;1.77;;;;;;;21.63;44.33;99656.53;1719608;83;25732;-59
2022/10/09 09:51:32;;;;;;;3.45;1.52;;;;;;;21.54;43.93;99663.72;1729179;82;26459;-58
2022/10/09 09:54:09;;;;;;;23.80;15.30;;;;;;;21.37;44.90;99663.52;1740722;82;25691;-58
2022/10/09 09:56:39;;;;;;;54.83;24.02;;;;;;;21.15;43.59;99663.58;1743124;82;27623;-58
2022/10/09 09:59:07;;;;;;;6.75;2.00;;;;;;;20.23;43.67;99662.42;1742662;82;25574;-59
2022/10/09 10:01:34;;;;;;;3.05;1.50;;;;;;;19.15;43.70;99663.80;1715819;82;25450;-58
2022/10/09 10:04:03;;;;;;;2.67;1.47;;;;;;;18.73;45.84;99663.37;1743183;82;25855;-58
2022/10/09 10:06:44;;;;;;;4.85;2.42;;;;;;;18.87;46.47;99666.39;1743452;82;25600;-59
2022/10/09 10:09:18;;;;;;;4.50;2.50;;;;;;;19.12;45.65;99662.28;1743136;82;27573;-58
2022/10/09 10:12:02;;;;;;;6.17;1.75;;;;;;;19.52;46.29;99660.15;1742950;82;25723;-59
2022/10/09 10:14:30;;;;;;;3.70;1.20;;;;;;;20.42;45.74;99661.73;1742774;82;25686;-58
2022/10/09 10:17:00;;;;;;;2.75;1.45;;;;;;;21.45;45.28;99658.92;1743069;82;25751;-58
2022/10/09 10:19:37;;;;;;;3.92;1.72;;;;;;;22.19;43.40;99651.72;1742947;82;25618;-58
2022/10/09 10:22:08;;;;;;;3.55;1.50;;;;;;;22.75;41.80;99645.98;1742754;82;27469;-58
2022/10/09 10:24:44;;;;;;;4.78;1.92;;;;;;;22.95;41.06;99643.11;1740561;82;25759;-59
2022/10/09 10:27:22;;;;;;;2.90;1.42;;;;;;;23.01;41.78;99650.58;1727547;82;25619;-59
2022/10/09 10:29:53;;;;;;;4.30;1.60;;;;;;;22.58;41.20;99650.61;1743211;82;25633;-59
2022/10/09 10:32:37;;;;;;;2.47;1.10;;;;;;;22.05;40.44;99649.44;1743209;82;25643;-58
2022/10/09 10:35:13;;;;;;;2.67;1.10;;;;;;;21.57;41.81;99644.04;1742600;82;27458;-58
2022/10/09 10:38:06;;;;;;;2.47;1.20;;;;;;;20.72;40.97;99643.22;1742566;82;25455;-61
2022/10/09 10:40:41;;;;;;;2.52;1.02;;;;;;;20.66;42.74;99636.30;1727479;83;25654;-60
2022/10/09 10:43:33;;;;;;;1.90;1.10;;;;;;;21.23;41.95;99644.48;1743036;82;25702;-61
2022/10/09 10:46:05;;;;;;;2.02;1.20;;;;;;;21.66;41.19;99639.06;1743431;82;25414;-61
2022/10/09 10:48:40;;;;;;;2.22;0.95;;;;;;;22.09;40.96;99640.34;1720459;83;27588;-61
2022/10/09 10:51:30;;;;;;;2.95;0.90;;;;;;;22.00;38.27;99648.36;1732606;82;25574;-60
2022/10/09 10:54:13;;;;;;;3.87;1.20;;;;;;;21.73;38.97;99648.77;1733054;82;29555;-59
2022/10/09 10:56:57;;;;;;;2.12;1.27;;;;;;;21.75;37.90;99643.03;1732900;82;25977;-60
2022/10/09 10:59:43;;;;;;;5.03;1.85;;;;;;;22.56;38.79;99644.82;1732447;82;25601;-60
2022/10/09 11:02:33;;;;;;;3.37;1.55;;;;;;;23.05;37.70;99638.85;1732898;82;28471;-60
2022/10/09 11:05:32;;;;;;;3.75;1.20;;;;;;;23.63;37.41;99639.72;1732570;82;25585;-60
2022/10/09 11:08:26;;;;;;;1.52;1.05;;;;;;;23.42;36.11;99643.03;1732424;82;25463;-61
2022/10/09 11:11:18;;;;;;;3.65;0.90;;;;;;;23.04;36.59;99641.44;1717402;83;25776;-61
2022/10/09 11:14:14;;;;;;;2.60;0.88;;;;;;;22.78;35.81;99645.23;1732827;82;25756;-61
2022/10/09 11:17:06;;;;;;;2.77;0.70;;;;;;;22.99;34.58;99639.77;1708664;84;28479;-60
2022/10/09 11:20:00;;;;;;;1.07;0.55;;;;;;;23.28;34.44;99640.80;1691309;84;25583;-61
2022/10/09 11:22:40;;;;;;;2.10;0.82;;;;;;;23.79;35.09;99632.55;1675273;84;25567;-61
2022/10/09 11:25:39;;;;;;;1.80;1.05;;;;;;;24.26;35.30;99632.91;1691449;84;25774;-61
2022/10/09 11:28:26;;;;;;;2.50;0.80;;;;;;;24.50;34.44;99630.16;1690402;84;25791;-62
2022/10/09 11:31:01;;;;;;;2.87;0.90;;;;;;;24.89;33.99;99630.31;1691442;84;27399;-61
2022/10/09 11:33:44;;;;;;;1.62;0.80;;;;;;;25.34;35.14;99620.19;1691574;84;25672;-60
2022/10/09 11:36:33;;;;;;;3.30;1.20;;;;;;;26.12;33.44;99618.75;1691355;84;25723;-62
2022/10/09 11:39:07;;;;;;;3.73;1.57;;;;;;;26.28;31.41;99616.38;1691936;84;25797;-61
2022/10/09 11:41:36;;;;;;;3.22;1.65;;;;;;;25.85;31.84;99620.48;1690891;84;25707;-61
2022/10/09 11:44:36;;;;;;;6.25;2.83;;;;;;;25.28;32.91;99617.77;1691525;84;28137;-61
2022/10/09 11:47:28;;;;;;;3.42;1.90;;;;;;;25.67;32.64;99619.78;1691635;84;25736;-57
2022/10/09 11:50:37;;;;;;;4.15;1.60;;;;;;;26.01;32.64;99618.71;1691338;84;25736;-58
2022/10/09 11:53:08;;;;;;;2.25;1.10;;;;;;;25.87;31.61;99619.46;1711454;83;25659;-58
2022/10/09 11:55:36;;;;;;;1.95;1.07;;;;;;;25.38;31.42;99609.20;1717480;83;25716;-58
2022/10/09 11:58:22;;;;;;;1.92;0.95;;;;;;;25.13;32.71;99608.44;1717471;83;28445;-57
2022/10/09 12:00:55;;;;;;;2.05;1.00;;;;;;;25.25;31.99;99604.53;1717352;83;25611;-60
2022/10/09 12:03:32;;;;;;;3.80;0.95;;;;;;;25.57;32.40;99607.30;1717660;83;25655;-61